Santa Rosa Beach, Florida
Current Conditions -  °F | °C
As of 7:53 PM on Sunday 21 Dec 2014 (Local Time) from KDTS Reporting Station
Overcast Overcast  
Wind Chill: 57°   Ceiling: 500
Heat Index: 57°   Visibility: 10mi
Dew Point: 55°   Wind: 7mph
Humidity: 93%   Direction: 90°E
Pressure: 30.01"   Gusts: NA
Location:  30.4°N, 86.23°W
Report Text: KDTS 220153Z AUTO 09006KT 10SM OVC005 14/13 A3001 RMK AO2 SLP163 T01390128 TSNO
Loading
Personal Weather Stations






























Interactive Weather Map New forecast layout! Learn more

10-Day Weather Forecast

Advertisements
Track Severe Weather on mobile